Time;durP1;ratioP1;P1;durP2;ratioP2;P2;SDS_P1;SDS_P2;PMS_P1;PMS_P2;Temp;Humidity;BMP_temperature;BMP_pressure;BME280_temperature;BME280_humidity;BME280_pressure;Samples;Min_cycle;Max_cycle;Signal;HPM_P1;HPM_P2
2021/08/03 00:01:36;;;;;;;;;;;;;;;30.15;38.75;100180.53;5100040;28;1325;-41
2021/08/03 00:04:13;;;;;;;;;;;;;;;30.13;38.56;100174.53;5099907;28;840;-40
2021/08/03 00:06:58;;;;;;;;;;;;;;;30.08;38.84;100172.44;5118060;28;755;-36
2021/08/03 00:09:23;;;;;;;;;;;;;;;30.04;38.79;100174.78;5099582;28;810;-40
2021/08/03 00:11:52;;;;;;;;;;;;;;;30.10;38.83;100166.78;5117597;28;946;-36
2021/08/03 00:14:17;;;;;;;;;;;;;;;30.12;38.93;100170.13;5099866;28;775;-35
2021/08/03 00:16:45;;;;;;;;;;;;;;;30.11;38.96;100165.75;5117534;28;827;-40
2021/08/03 00:19:10;;;;;;;;;;;;;;;30.16;38.80;100171.38;5099485;28;837;-35
2021/08/03 00:21:36;;;;;;;;;;;;;;;30.16;38.76;100166.75;5118096;28;811;-36
2021/08/03 00:24:02;;;;;;;;;;;;;;;30.13;38.71;100172.63;5099255;28;843;-38
2021/08/03 00:26:27;;;;;;;;;;;;;;;30.15;38.59;100159.69;5117139;28;1897;-41
2021/08/03 00:28:53;;;;;;;;;;;;;;;30.15;38.69;100165.09;5117216;28;841;-40
2021/08/03 00:31:18;;;;;;;;;;;;;;;30.16;38.73;100164.03;5117529;28;720;-36
2021/08/03 00:33:47;;;;;;;;;;;;;;;30.21;38.97;100159.88;5117600;28;798;-41
2021/08/03 00:36:13;;;;;;;;;;;;;;;30.15;38.85;100159.69;5117291;28;799;-38
2021/08/03 00:38:38;;;;;;;;;;;;;;;30.16;38.75;100158.63;5117154;28;815;-41
2021/08/03 00:41:04;;;;;;;;;;;;;;;30.13;38.82;100153.63;5117050;28;977;-36
2021/08/03 00:43:30;;;;;;;;;;;;;;;30.18;38.81;100159.25;5117020;28;863;-39
2021/08/03 00:45:55;;;;;;;;;;;;;;;30.16;38.86;100157.81;5117250;28;1906;-41
2021/08/03 00:48:20;;;;;;;;;;;;;;;30.13;39.09;100145.50;5116853;28;866;-39
2021/08/03 00:50:46;;;;;;;;;;;;;;;30.18;38.87;100150.25;5117139;28;894;-39
2021/08/03 00:53:11;;;;;;;;;;;;;;;30.21;38.85;100151.75;5115091;28;1122;-39
2021/08/03 00:55:36;;;;;;;;;;;;;;;30.21;38.77;100157.19;5096878;28;1252;-36
2021/08/03 00:58:02;;;;;;;;;;;;;;;30.15;38.76;100156.97;5113507;28;958;-39
2021/08/03 01:00:27;;;;;;;;;;;;;;;30.22;38.70;100156.13;5116530;28;843;-36
2021/08/03 01:02:52;;;;;;;;;;;;;;;30.21;38.90;100155.31;5116983;28;779;-39
2021/08/03 01:05:18;;;;;;;;;;;;;;;30.19;39.02;100163.63;5116893;28;1987;-36
2021/08/03 01:07:44;;;;;;;;;;;;;;;30.17;38.87;100165.72;5116964;28;752;-36
2021/08/03 01:10:27;;;;;;;;;;;;;;;30.13;38.92;100175.34;5116651;28;843;-37
2021/08/03 01:12:56;;;;;;;;;;;;;;;30.17;39.02;100165.72;5116768;28;994;-39
2021/08/03 01:15:22;;;;;;;;;;;;;;;30.22;39.04;100170.53;5116786;28;734;-38
2021/08/03 01:17:58;;;;;;;;;;;;;;;30.23;38.92;100174.06;5098683;28;854;-38
2021/08/03 01:20:27;;;;;;;;;;;;;;;30.19;39.13;100189.91;5116704;28;771;-39
2021/08/03 01:22:58;;;;;;;;;;;;;;;30.23;39.02;100199.31;5116688;28;846;-36
2021/08/03 01:25:34;;;;;;;;;;;;;;;30.20;39.31;100199.75;5117115;28;1909;-39
2021/08/03 01:28:05;;;;;;;;;;;;;;;30.25;38.93;100199.94;5099151;28;910;-40
2021/08/03 01:30:31;;;;;;;;;;;;;;;30.19;38.88;100200.78;5121262;28;762;-38
2021/08/03 01:32:56;;;;;;;;;;;;;;;30.19;38.82;100211.63;5102911;28;803;-36
2021/08/03 01:35:22;;;;;;;;;;;;;;;30.23;39.04;100207.44;5102456;28;797;-38
2021/08/03 01:37:48;;;;;;;;;;;;;;;30.26;38.94;100208.91;5121007;28;807;-41
2021/08/03 01:40:13;;;;;;;;;;;;;;;30.23;38.98;100203.91;5120611;28;802;-40
2021/08/03 01:42:40;;;;;;;;;;;;;;;30.22;38.95;100204.94;5120054;28;958;-38
2021/08/03 01:45:06;;;;;;;;;;;;;;;30.19;39.17;100207.03;5120931;28;1909;-40
2021/08/03 01:47:31;;;;;;;;;;;;;;;30.22;39.19;100211.22;5102317;28;1070;-39
2021/08/03 01:49:56;;;;;;;;;;;;;;;30.23;39.06;100210.16;5120293;28;812;-40
2021/08/03 01:52:22;;;;;;;;;;;;;;;30.24;39.10;100216.41;5102368;28;747;-39
2021/08/03 01:54:47;;;;;;;;;;;;;;;30.19;39.20;100212.47;5104517;28;1150;-36
2021/08/03 01:57:13;;;;;;;;;;;;;;;30.21;39.14;100201.41;5110077;28;978;-39
2021/08/03 01:59:38;;;;;;;;;;;;;;;30.27;38.91;100205.13;5102548;28;863;-40
2021/08/03 02:02:03;;;;;;;;;;;;;;;30.19;39.17;100206.19;5102059;28;802;-39
2021/08/03 02:04:29;;;;;;;;;;;;;;;30.22;39.06;100213.09;5120506;28;1909;-38
2021/08/03 02:06:54;;;;;;;;;;;;;;;30.24;39.04;100213.72;5120492;28;791;-40
2021/08/03 02:09:20;;;;;;;;;;;;;;;30.25;39.12;100212.66;5102038;28;801;-40
2021/08/03 02:11:45;;;;;;;;;;;;;;;30.25;38.91;100226.22;5101387;28;1001;-40
2021/08/03 02:14:11;;;;;;;;;;;;;;;30.26;39.08;100234.13;5101429;28;1098;-36
2021/08/03 02:16:36;;;;;;;;;;;;;;;30.27;38.98;100232.25;5120139;28;814;-36
2021/08/03 02:19:02;;;;;;;;;;;;;;;30.21;39.13;100233.13;5120257;28;772;-39
2021/08/03 02:21:27;;;;;;;;;;;;;;;30.21;39.37;100239.41;5119943;28;775;-40
2021/08/03 02:23:53;;;;;;;;;;;;;;;30.19;39.37;100233.31;5120032;28;785;-40
2021/08/03 02:26:18;;;;;;;;;;;;;;;30.18;39.33;100231.63;5119791;28;1906;-39
2021/08/03 02:28:43;;;;;;;;;;;;;;;30.22;39.30;100232.06;5119740;28;914;-38
2021/08/03 02:31:10;;;;;;;;;;;;;;;30.25;39.09;100242.50;5119194;28;906;-36
2021/08/03 02:33:36;;;;;;;;;;;;;;;30.21;39.17;100252.97;5101702;28;828;-35
2021/08/03 02:36:06;;;;;;;;;;;;;;;30.24;39.04;100257.13;5119811;28;755;-39
2021/08/03 02:38:32;;;;;;;;;;;;;;;30.19;39.35;100272.16;5101561;28;764;-38
2021/08/03 02:40:58;;;;;;;;;;;;;;;30.21;39.54;100273.81;5100786;28;815;-39
2021/08/03 02:43:24;;;;;;;;;;;;;;;30.21;39.47;100265.69;5080354;28;950;-38
2021/08/03 02:45:50;;;;;;;;;;;;;;;30.28;39.48;100282.78;5080847;28;1963;-40
2021/08/03 02:48:15;;;;;;;;;;;;;;;30.23;39.27;100271.75;5099511;28;826;-35
2021/08/03 02:50:41;;;;;;;;;;;;;;;30.24;39.28;100278.81;5080879;28;817;-37
2021/08/03 02:53:08;;;;;;;;;;;;;;;30.24;39.16;100290.50;5100523;28;1159;-36
2021/08/03 02:56:03;;;;;;;;;;;;;;;30.22;39.35;100292.59;5119130;28;1246;-39
2021/08/03 02:58:32;;;;;;;;;;;;;;;30.24;39.36;100293.22;5080720;28;1445;-39
2021/08/03 03:00:58;;;;;;;;;;;;;;;30.23;39.37;100298.88;5098936;28;859;-39
2021/08/03 03:03:24;;;;;;;;;;;;;;;30.23;39.42;100302.38;5081175;28;786;-37
2021/08/03 03:06:03;;;;;;;;;;;;;;;30.18;39.38;100311.16;5080549;28;1985;-38
2021/08/03 03:08:30;;;;;;;;;;;;;;;30.19;39.18;100301.97;5098670;28;740;-38
2021/08/03 03:10:55;;;;;;;;;;;;;;;30.21;39.31;100311.81;5098393;28;746;-37
2021/08/03 03:13:22;;;;;;;;;;;;;;;29.90;37.49;100312.28;5118584;28;1017;-33
2021/08/03 03:15:47;;;;;;;;;;;;;;;29.66;38.40;100311.91;5098425;28;929;-37
2021/08/03 03:18:13;;;;;;;;;;;;;;;29.62;38.51;100313.41;5100654;28;779;-37
2021/08/03 03:20:38;;;;;;;;;;;;;;;29.01;39.76;100320.66;5100472;28;926;-34
2021/08/03 03:23:03;;;;;;;;;;;;;;;28.91;40.62;100312.91;5100362;28;764;-37
2021/08/03 03:25:29;;;;;;;;;;;;;;;29.46;40.62;100310.03;5100080;28;1902;-36
2021/08/03 03:27:56;;;;;;;;;;;;;;;29.38;40.88;100307.53;5100014;28;995;-36
2021/08/03 03:30:21;;;;;;;;;;;;;;;29.56;41.16;100306.09;5100369;28;811;-37
2021/08/03 03:32:47;;;;;;;;;;;;;;;29.31;41.83;100312.97;5100630;28;787;-34
2021/08/03 03:35:13;;;;;;;;;;;;;;;29.18;44.38;100307.53;5100318;28;971;-33
2021/08/03 03:37:39;;;;;;;;;;;;;;;29.63;41.29;100311.53;5100557;28;779;-34
2021/08/03 03:40:05;;;;;;;;;;;;;;;29.74;41.21;100305.47;5100468;28;771;-36
2021/08/03 03:42:31;;;;;;;;;;;;;;;29.82;42.04;100310.66;5118154;28;958;-40
2021/08/03 03:44:57;;;;;;;;;;;;;;;29.59;42.26;100302.97;5118566;28;1959;-37
2021/08/03 03:47:24;;;;;;;;;;;;;;;29.41;44.42;100298.19;5117986;28;838;-36
2021/08/03 03:49:51;;;;;;;;;;;;;;;29.45;44.33;100297.53;5117991;28;843;-38
2021/08/03 03:52:16;;;;;;;;;;;;;;;29.24;47.27;100309.44;5117877;28;795;-37
2021/08/03 03:54:43;;;;;;;;;;;;;;;28.15;52.46;100310.13;5084604;28;1194;-38
2021/08/03 03:57:08;;;;;;;;;;;;;;;28.10;53.42;100289.13;5088860;28;1033;-36
2021/08/03 03:59:35;;;;;;;;;;;;;;;28.76;51.32;100304.97;5118016;28;809;-39
2021/08/03 04:02:01;;;;;;;;;;;;;;;28.79;49.53;100313.53;5117680;28;866;-40
2021/08/03 04:04:27;;;;;;;;;;;;;;;28.60;52.44;100296.19;5118200;28;1913;-39
2021/08/03 04:06:52;;;;;;;;;;;;;;;28.12;52.32;100300.56;5099902;28;780;-34
2021/08/03 04:09:18;;;;;;;;;;;;;;;27.47;53.86;100307.00;5099687;28;820;-38
2021/08/03 04:11:46;;;;;;;;;;;;;;;27.19;56.72;100308.69;5117638;28;958;-40
2021/08/03 04:14:13;;;;;;;;;;;;;;;27.98;51.16;100316.72;5117610;28;836;-35
2021/08/03 04:16:39;;;;;;;;;;;;;;;28.31;52.11;100317.09;5117710;28;862;-41
2021/08/03 04:19:04;;;;;;;;;;;;;;;28.15;53.07;100335.31;5117556;28;1397;-34
2021/08/03 04:21:29;;;;;;;;;;;;;;;27.81;52.25;100340.53;5117898;28;823;-38
2021/08/03 04:23:54;;;;;;;;;;;;;;;28.06;50.94;100353.56;5117462;28;846;-40
2021/08/03 04:26:20;;;;;;;;;;;;;;;28.25;52.26;100351.19;5116919;28;1972;-39
2021/08/03 04:28:45;;;;;;;;;;;;;;;28.62;50.08;100359.06;5117406;28;743;-40
2021/08/03 04:31:10;;;;;;;;;;;;;;;29.11;50.80;100358.19;5099036;28;1401;-41
2021/08/03 04:33:37;;;;;;;;;;;;;;;27.46;52.15;100362.09;5117871;28;763;-41
2021/08/03 04:36:03;;;;;;;;;;;;;;;26.76;52.88;100361.56;5117107;28;825;-34
2021/08/03 04:38:28;;;;;;;;;;;;;;;27.89;52.54;100377.41;5117221;28;839;-43
2021/08/03 04:40:53;;;;;;;;;;;;;;;28.66;52.29;100384.66;5117259;28;1128;-35
2021/08/03 04:43:19;;;;;;;;;;;;;;;27.09;53.29;100387.25;5116825;28;950;-39
2021/08/03 04:45:44;;;;;;;;;;;;;;;26.74;52.67;100392.47;5116782;28;1976;-31
2021/08/03 04:48:09;;;;;;;;;;;;;;;26.96;54.84;100392.53;5117404;28;838;-32
2021/08/03 04:50:35;;;;;;;;;;;;;;;28.43;51.25;100387.69;5098769;28;1144;-40
2021/08/03 04:53:00;;;;;;;;;;;;;;;28.93;51.49;100394.75;5116796;28;1163;-34
2021/08/03 04:55:25;;;;;;;;;;;;;;;27.05;54.13;100404.88;5113132;28;1245;-33
2021/08/03 04:57:50;;;;;;;;;;;;;;;26.79;53.99;100419.72;5111849;28;1014;-40
2021/08/03 05:00:16;;;;;;;;;;;;;;;27.86;49.27;100423.75;5117108;28;795;-36
2021/08/03 05:02:41;;;;;;;;;;;;;;;27.88;48.95;100429.78;5116673;28;755;-35
2021/08/03 05:05:07;;;;;;;;;;;;;;;27.73;52.84;100427.16;5116511;28;1909;-33
2021/08/03 05:07:32;;;;;;;;;;;;;;;28.55;52.33;100444.78;5117078;28;802;-33
2021/08/03 05:10:01;;;;;;;;;;;;;;;27.28;53.21;100451.66;5116998;28;874;-35
2021/08/03 05:12:27;;;;;;;;;;;;;;;26.60;54.14;100448.97;5116362;28;1442;-31
2021/08/03 05:14:58;;;;;;;;;;;;;;;27.16;55.86;100451.31;5116429;28;804;-37
2021/08/03 05:17:23;;;;;;;;;;;;;;;28.22;52.56;100447.09;5116465;28;1215;-35
2021/08/03 05:19:48;;;;;;;;;;;;;;;27.89;51.54;100449.53;5116590;28;846;-32
2021/08/03 05:22:13;;;;;;;;;;;;;;;26.96;53.53;100460.00;5117209;28;756;-39
2021/08/03 05:24:39;;;;;;;;;;;;;;;27.18;55.30;100457.34;5116676;28;1966;-35
2021/08/03 05:27:04;;;;;;;;;;;;;;;28.66;51.25;100463.16;5116480;28;1001;-33
2021/08/03 05:29:31;;;;;;;;;;;;;;;27.39;53.83;100462.78;5117015;28;743;-38
2021/08/03 05:31:56;;;;;;;;;;;;;;;28.05;52.48;100446.53;5116610;28;771;-40
2021/08/03 05:34:21;;;;;;;;;;;;;;;28.89;51.45;100453.06;5116542;28;767;-34
2021/08/03 05:36:47;;;;;;;;;;;;;;;27.09;53.47;100449.34;5116811;28;738;-38
2021/08/03 05:39:12;;;;;;;;;;;;;;;26.61;53.93;100442.53;5116669;28;735;-32
2021/08/03 05:41:37;;;;;;;;;;;;;;;26.63;53.48;100445.03;5115913;28;1421;-38
2021/08/03 05:44:02;;;;;;;;;;;;;;;27.00;54.46;100450.47;5116367;28;842;-34
2021/08/03 05:46:28;;;;;;;;;;;;;;;28.60;50.18;100445.88;5116632;28;1967;-39
2021/08/03 05:48:53;;;;;;;;;;;;;;;26.94;53.43;100453.94;5098668;28;767;-33
2021/08/03 05:51:18;;;;;;;;;;;;;;;26.47;53.42;100444.22;5116599;28;819;-39
2021/08/03 05:53:44;;;;;;;;;;;;;;;26.29;54.38;100458.03;5116167;28;1282;-35
2021/08/03 05:56:09;;;;;;;;;;;;;;;26.73;53.14;100453.69;5115896;28;1013;-34
2021/08/03 05:58:34;;;;;;;;;;;;;;;26.42;53.96;100454.72;5116376;28;799;-38
2021/08/03 06:00:59;;;;;;;;;;;;;;;27.61;52.05;100461.97;5116544;28;838;-39
2021/08/03 06:03:25;;;;;;;;;;;;;;;28.33;50.12;100464.66;5116349;28;768;-39
2021/08/03 06:05:51;;;;;;;;;;;;;;;27.04;53.74;100467.16;5116638;28;1906;-37
2021/08/03 06:08:16;;;;;;;;;;;;;;;27.07;53.53;100469.50;5116733;28;771;-39
2021/08/03 06:10:42;;;;;;;;;;;;;;;27.42;49.56;100472.38;5116364;28;1162;-38
2021/08/03 06:13:08;;;;;;;;;;;;;;;27.29;48.54;100475.78;5098674;28;1049;-37
2021/08/03 06:15:37;;;;;;;;;;;;;;;27.57;50.11;100475.03;5101374;28;1164;-38
2021/08/03 06:18:03;;;;;;;;;;;;;;;28.44;47.24;100470.56;5120546;28;807;-39
2021/08/03 06:20:29;;;;;;;;;;;;;;;28.14;46.24;100474.28;5120405;28;792;-39
2021/08/03 06:22:54;;;;;;;;;;;;;;;27.35;46.79;100480.41;5101322;28;777;-39
2021/08/03 06:25:19;;;;;;;;;;;;;;;27.12;49.24;100475.16;5102068;28;1959;-39
2021/08/03 06:27:45;;;;;;;;;;;;;;;28.24;46.15;100480.16;5101814;28;1028;-39
2021/08/03 06:30:10;;;;;;;;;;;;;;;28.29;47.92;100487.69;5096357;28;1489;-38
2021/08/03 06:32:36;;;;;;;;;;;;;;;27.72;45.50;100493.91;5118964;28;787;-38
2021/08/03 06:35:01;;;;;;;;;;;;;;;27.20;47.51;100498.50;5100983;28;1076;-39
2021/08/03 06:37:26;;;;;;;;;;;;;;;28.10;45.73;100497.31;5119221;28;712;-39
2021/08/03 06:39:52;;;;;;;;;;;;;;;28.43;47.21;100502.16;5119344;28;780;-38
2021/08/03 06:42:36;;;;;;;;;;;;;;;27.70;45.29;100503.22;5118772;28;1010;-37
2021/08/03 06:45:02;;;;;;;;;;;;;;;27.42;48.99;100501.25;5118892;28;1964;-38
2021/08/03 06:47:29;;;;;;;;;;;;;;;28.35;44.83;100494.22;5119535;28;732;-38
2021/08/03 06:49:54;;;;;;;;;;;;;;;27.65;44.95;100501.06;5101020;28;776;-38
2021/08/03 06:52:19;;;;;;;;;;;;;;;27.06;45.76;100501.03;5118881;28;812;-39
2021/08/03 06:54:47;;;;;;;;;;;;;;;27.86;45.21;100502.94;5118870;28;1282;-38
2021/08/03 06:57:13;;;;;;;;;;;;;;;28.11;44.29;100504.44;5118404;28;942;-38
2021/08/03 06:59:48;;;;;;;;;;;;;;;27.17;45.52;100505.13;5119177;28;796;-39
2021/08/03 07:02:15;;;;;;;;;;;;;;;27.42;46.74;100498.53;5118177;28;910;-39
2021/08/03 07:04:44;;;;;;;;;;;;;;;28.34;44.25;100498.78;5118629;28;1913;-38
2021/08/03 07:07:10;;;;;;;;;;;;;;;27.20;45.62;100510.16;5118977;28;882;-39
2021/08/03 07:09:35;;;;;;;;;;;;;;;27.26;48.06;100503.97;5118792;28;740;-38
2021/08/03 07:12:00;;;;;;;;;;;;;;;28.31;44.52;100501.84;5099816;28;981;-37
2021/08/03 07:14:26;;;;;;;;;;;;;;;27.47;44.62;100504.22;5100061;28;1363;-37
2021/08/03 07:16:54;;;;;;;;;;;;;;;27.20;47.56;100496.66;5118592;28;801;-39
2021/08/03 07:19:20;;;;;;;;;;;;;;;28.31;44.19;100501.84;5119103;28;834;-39
2021/08/03 07:21:45;;;;;;;;;;;;;;;27.62;44.67;100496.91;5118363;28;859;-38
2021/08/03 07:24:11;;;;;;;;;;;;;;;27.10;45.22;100491.56;5100538;28;794;-38
2021/08/03 07:26:37;;;;;;;;;;;;;;;27.92;44.86;100493.25;5117076;28;1901;-38
2021/08/03 07:29:02;;;;;;;;;;;;;;;28.16;44.11;100491.13;5118268;28;863;-38
2021/08/03 07:31:27;;;;;;;;;;;;;;;27.18;44.89;100490.59;5118451;28;779;-38
2021/08/03 07:33:52;;;;;;;;;;;;;;;27.59;46.13;100499.13;5118253;28;743;-38
2021/08/03 07:36:18;;;;;;;;;;;;;;;28.40;44.42;100493.59;5118489;28;799;-38
2021/08/03 07:38:43;;;;;;;;;;;;;;;27.20;45.30;100501.19;5118208;28;779;-38
2021/08/03 07:41:08;;;;;;;;;;;;;;;26.93;46.67;100503.53;5099399;28;992;-38
2021/08/03 07:43:34;;;;;;;;;;;;;;;28.09;44.19;100506.47;5116813;28;875;-38
2021/08/03 07:45:59;;;;;;;;;;;;;;;27.84;43.70;100496.09;5117949;28;1905;-38
2021/08/03 07:48:24;;;;;;;;;;;;;;;27.17;44.89;100499.72;5099963;28;783;-38
2021/08/03 07:50:50;;;;;;;;;;;;;;;27.69;45.63;100498.84;5118083;28;833;-38
2021/08/03 07:53:15;;;;;;;;;;;;;;;28.54;43.58;100502.66;5114250;28;936;-39
2021/08/03 07:55:40;;;;;;;;;;;;;;;27.37;44.43;100509.94;5097017;28;1150;-38
2021/08/03 07:58:05;;;;;;;;;;;;;;;27.33;46.55;100512.16;5115175;28;963;-38
2021/08/03 08:00:31;;;;;;;;;;;;;;;28.40;43.11;100510.69;5117760;28;862;-38
2021/08/03 08:02:57;;;;;;;;;;;;;;;27.61;43.93;100505.19;5117233;28;760;-38
2021/08/03 08:05:22;;;;;;;;;;;;;;;27.08;44.26;100507.09;5099147;28;1972;-39
2021/08/03 08:07:47;;;;;;;;;;;;;;;27.81;44.46;100510.00;5117281;28;831;-39
2021/08/03 08:10:12;;;;;;;;;;;;;;;28.38;43.42;100511.94;5117823;28;797;-38
2021/08/03 08:12:38;;;;;;;;;;;;;;;27.35;44.19;100517.38;5117603;28;950;-38
2021/08/03 08:15:03;;;;;;;;;;;;;;;27.20;46.53;100517.41;5117041;28;859;-38
2021/08/03 08:17:29;;;;;;;;;;;;;;;28.30;43.57;100507.44;5117348;28;723;-39
2021/08/03 08:19:54;;;;;;;;;;;;;;;27.58;44.08;100517.22;5117061;28;847;-38
2021/08/03 08:22:19;;;;;;;;;;;;;;;27.26;44.42;100506.69;5117693;28;763;-37
2021/08/03 08:24:45;;;;;;;;;;;;;;;27.17;45.79;100507.84;5117067;28;1965;-38
2021/08/03 08:27:10;;;;;;;;;;;;;;;28.17;43.42;100508.19;5116658;28;969;-38
2021/08/03 08:29:35;;;;;;;;;;;;;;;27.74;43.77;100507.22;5117323;28;817;-38
2021/08/03 08:32:00;;;;;;;;;;;;;;;27.01;44.84;100507.00;5116904;28;837;-38
2021/08/03 08:34:26;;;;;;;;;;;;;;;27.21;46.92;100502.91;5098405;28;1120;-38
2021/08/03 08:36:51;;;;;;;;;;;;;;;28.41;42.58;100508.81;5117293;28;826;-38
2021/08/03 08:39:17;;;;;;;;;;;;;;;27.68;44.02;100510.63;5116919;28;796;-37
2021/08/03 08:41:42;;;;;;;;;;;;;;;27.10;44.07;100512.31;5116545;28;946;-38
2021/08/03 08:44:08;;;;;;;;;;;;;;;26.96;47.35;100514.81;5097958;28;1054;-36
2021/08/03 08:46:36;;;;;;;;;;;;;;;28.22;43.34;100508.44;5116763;28;1963;-35
2021/08/03 08:49:02;;;;;;;;;;;;;;;27.55;42.77;100524.84;5116945;28;750;-37
2021/08/03 08:51:27;;;;;;;;;;;;;;;26.97;44.24;100516.50;5116903;28;776;-35
2021/08/03 08:53:53;;;;;;;;;;;;;;;28.12;42.94;100516.91;5116475;28;1272;-37
2021/08/03 08:56:18;;;;;;;;;;;;;;;27.87;43.04;100515.47;5115655;28;997;-38
2021/08/03 08:58:44;;;;;;;;;;;;;;;27.23;43.79;100512.47;5116549;28;748;-37
2021/08/03 09:01:09;;;;;;;;;;;;;;;27.57;46.42;100522.81;5117045;28;852;-35
2021/08/03 09:03:34;;;;;;;;;;;;;;;28.56;42.25;100514.94;5117195;28;802;-37
2021/08/03 09:06:00;;;;;;;;;;;;;;;27.80;43.34;100521.81;5116349;28;1963;-37
2021/08/03 09:08:26;;;;;;;;;;;;;;;27.12;43.76;100518.34;5116636;28;805;-38
2021/08/03 09:10:52;;;;;;;;;;;;;;;26.64;44.43;100519.56;5098900;28;1261;-37
2021/08/03 09:13:18;;;;;;;;;;;;;;;27.78;43.75;100515.78;5116468;28;1048;-38
2021/08/03 09:15:47;;;;;;;;;;;;;;;28.01;42.92;100512.03;5116951;28;813;-38
2021/08/03 09:18:16;;;;;;;;;;;;;;;27.16;44.15;100516.94;5117115;28;799;-37
2021/08/03 09:20:42;;;;;;;;;;;;;;;26.70;44.39;100513.44;5116816;28;835;-39
2021/08/03 09:23:08;;;;;;;;;;;;;;;27.91;43.57;100515.06;5116828;28;833;-39
2021/08/03 09:25:33;;;;;;;;;;;;;;;27.87;43.59;100509.19;5117125;28;1976;-37
2021/08/03 09:28:03;;;;;;;;;;;;;;;26.94;44.60;100514.19;5116699;28;946;-37
2021/08/03 09:30:29;;;;;;;;;;;;;;;26.92;43.92;100518.91;5116785;28;819;-38
2021/08/03 09:32:55;;;;;;;;;;;;;;;27.74;44.03;100516.13;5117151;28;771;-39
2021/08/03 09:35:21;;;;;;;;;;;;;;;28.21;43.23;100507.59;5117100;28;744;-39
2021/08/03 09:37:46;;;;;;;;;;;;;;;27.18;43.97;100511.34;5108895;28;1121;-38
2021/08/03 09:40:30;;;;;;;;;;;;;;;26.93;44.21;100507.06;5116330;28;779;-38
2021/08/03 09:42:58;;;;;;;;;;;;;;;26.66;44.49;100509.41;5115999;28;943;-38
2021/08/03 09:45:24;;;;;;;;;;;;;;;27.13;46.25;100510.06;5115991;28;1918;-38
2021/08/03 09:47:49;;;;;;;;;;;;;;;28.33;42.73;100501.69;5115924;28;768;-38
2021/08/03 09:50:17;;;;;;;;;;;;;;;27.43;43.98;100509.16;5101225;28;736;-38
2021/08/03 09:52:43;;;;;;;;;;;;;;;27.00;44.76;100512.56;5120277;28;871;-38
2021/08/03 09:55:18;;;;;;;;;;;;;;;26.72;45.57;100491.66;5119729;28;1257;-38
2021/08/03 09:57:44;;;;;;;;;;;;;;;26.62;45.67;100503.56;5116951;28;874;-38
2021/08/03 10:00:27;;;;;;;;;;;;;;;26.36;46.07;100510.22;5100147;28;858;-37
2021/08/03 10:02:53;;;;;;;;;;;;;;;26.64;46.11;100523.09;5099822;28;758;-38
2021/08/03 10:05:19;;;;;;;;;;;;;;;27.95;44.00;100532.56;5099470;28;1917;-36
2021/08/03 10:07:44;;;;;;;;;;;;;;;27.65;43.97;100525.38;5099654;28;825;-34
2021/08/03 10:10:10;;;;;;;;;;;;;;;26.94;45.39;100521.41;5081066;28;844;-39
2021/08/03 10:12:35;;;;;;;;;;;;;;;26.83;44.75;100514.63;5113022;28;967;-38
2021/08/03 10:15:01;;;;;;;;;;;;;;;27.17;47.11;100531.28;5119830;28;784;-38
2021/08/03 10:17:26;;;;;;;;;;;;;;;28.28;43.51;100526.59;5119530;28;747;-37
2021/08/03 10:19:51;;;;;;;;;;;;;;;27.56;44.62;100527.38;5119762;28;806;-35
2021/08/03 10:22:23;;;;;;;;;;;;;;;27.10;44.80;100532.06;5101736;28;1546;-38
2021/08/03 10:24:52;;;;;;;;;;;;;;;26.84;45.13;100524.41;5119933;28;1972;-37
2021/08/03 10:27:18;;;;;;;;;;;;;;;27.25;47.09;100523.06;5118921;28;966;-37
2021/08/03 10:29:52;;;;;;;;;;;;;;;28.24;43.58;100533.44;5119449;28;810;-38
2021/08/03 10:32:37;;;;;;;;;;;;;;;27.37;44.80;100518.88;5119727;28;835;-38
2021/08/03 10:35:03;;;;;;;;;;;;;;;26.92;45.00;100520.75;5119354;28;844;-39
2021/08/03 10:37:47;;;;;;;;;;;;;;;26.95;44.29;100534.72;5119144;28;775;-41
2021/08/03 10:40:12;;;;;;;;;;;;;;;26.79;44.74;100530.38;5118915;28;811;-39
2021/08/03 10:42:37;;;;;;;;;;;;;;;27.85;43.78;100532.88;5100502;28;1321;-39
2021/08/03 10:45:10;;;;;;;;;;;;;;;28.26;43.34;100531.34;5119210;28;1925;-40
2021/08/03 10:47:39;;;;;;;;;;;;;;;27.29;44.51;100529.78;5100818;28;1588;-34
2021/08/03 10:50:08;;;;;;;;;;;;;;;27.08;44.20;100520.59;5119088;28;804;-39
2021/08/03 10:52:52;;;;;;;;;;;;;;;26.87;44.38;100513.22;5119201;28;803;-38
2021/08/03 10:55:29;;;;;;;;;;;;;;;27.37;45.34;100529.69;5119158;28;1043;-39
2021/08/03 10:58:09;;;;;;;;;;;;;;;28.54;43.14;100517.03;5117957;28;1010;-38
2021/08/03 11:00:48;;;;;;;;;;;;;;;27.18;44.54;100528.41;5117674;28;794;-39
2021/08/03 11:03:32;;;;;;;;;;;;;;;27.06;43.98;100521.81;5118927;28;751;-39
2021/08/03 11:05:58;;;;;;;;;;;;;;;26.74;44.63;100527.38;5118045;28;1966;-38
2021/08/03 11:08:30;;;;;;;;;;;;;;;26.58;45.14;100520.28;5118683;28;851;-38
2021/08/03 11:11:05;;;;;;;;;;;;;;;26.50;45.17;100519.38;5119430;28;828;-38
2021/08/03 11:13:37;;;;;;;;;;;;;;;26.73;47.47;100521.16;5098966;28;1287;-38
2021/08/03 11:16:02;;;;;;;;;;;;;;;28.21;43.88;100517.59;5098239;28;819;-39
2021/08/03 11:18:43;;;;;;;;;;;;;;;27.54;44.81;100526.75;5080209;28;772;-38
2021/08/03 11:21:09;;;;;;;;;;;;;;;27.02;45.47;100519.50;5098161;28;764;-36
2021/08/03 11:23:53;;;;;;;;;;;;;;;26.78;45.75;100512.47;5098019;28;696;-36
2021/08/03 11:26:21;;;;;;;;;;;;;;;26.54;45.90;100514.44;5100109;28;1956;-38
2021/08/03 11:28:58;;;;;;;;;;;;;;;26.67;45.74;100516.50;5118469;28;762;-37
2021/08/03 11:31:37;;;;;;;;;;;;;;;26.47;46.12;100508.09;5118399;28;799;-36
2021/08/03 11:34:02;;;;;;;;;;;;;;;26.30;46.36;100508.25;5118434;28;783;-37
2021/08/03 11:36:27;;;;;;;;;;;;;;;26.23;46.27;100508.13;5100076;28;831;-35
2021/08/03 11:38:52;;;;;;;;;;;;;;;26.22;46.23;100501.09;5118218;28;787;-36
2021/08/03 11:41:18;;;;;;;;;;;;;;;26.27;46.04;100503.22;5117514;28;942;-36
2021/08/03 11:43:43;;;;;;;;;;;;;;;26.01;46.69;100493.66;5118255;28;783;-37
2021/08/03 11:46:08;;;;;;;;;;;;;;;26.13;46.38;100503.00;5117952;28;1897;-36
2021/08/03 11:48:33;;;;;;;;;;;;;;;25.88;46.82;100499.66;5099520;28;1448;-36
2021/08/03 11:51:00;;;;;;;;;;;;;;;25.94;46.66;100495.44;5118377;28;847;-33
2021/08/03 11:53:26;;;;;;;;;;;;;;;26.06;46.70;100485.06;5118102;28;1147;-38
2021/08/03 11:55:55;;;;;;;;;;;;;;;26.02;46.67;100492.66;5117476;28;1307;-37
2021/08/03 11:58:21;;;;;;;;;;;;;;;26.20;46.29;100483.41;5117417;28;962;-35
2021/08/03 12:00:46;;;;;;;;;;;;;;;26.07;46.44;100494.81;5117271;28;855;-37
2021/08/03 12:03:11;;;;;;;;;;;;;;;26.14;46.20;100493.88;5117837;28;804;-38
2021/08/03 12:05:40;;;;;;;;;;;;;;;26.00;46.65;100484.75;5117648;28;1910;-34
2021/08/03 12:08:05;;;;;;;;;;;;;;;26.08;46.47;100475.75;5117377;28;483;-37
2021/08/03 12:10:40;;;;;;;;;;;;;;;26.35;45.63;100484.28;5116718;28;831;-38
2021/08/03 12:13:06;;;;;;;;;;;;;;;25.34;46.22;100356.78;5116762;28;1021;-39
2021/08/03 12:15:42;;;;;;;;;;;;;;;26.20;45.57;100483.41;5117296;28;728;-37
2021/08/03 12:18:08;;;;;;;;;;;;;;;26.22;46.39;100476.81;5098579;28;824;-38
2021/08/03 12:20:39;;;;;;;;;;;;;;;26.08;46.44;100485.69;5116515;28;804;-38
2021/08/03 12:23:08;;;;;;;;;;;;;;;26.01;46.40;100481.03;5116908;28;1443;-38
2021/08/03 12:25:45;;;;;;;;;;;;;;;26.19;46.20;100477.19;5117311;28;1897;-38
2021/08/03 12:28:11;;;;;;;;;;;;;;;26.12;46.40;100479.78;5117119;28;946;-36
2021/08/03 12:30:37;;;;;;;;;;;;;;;26.21;46.17;100479.69;5098646;28;764;-37
2021/08/03 12:33:03;;;;;;;;;;;;;;;26.25;46.23;100476.44;5117271;28;832;-36
2021/08/03 12:35:28;;;;;;;;;;;;;;;26.13;47.65;100485.97;5117182;28;792;-35
2021/08/03 12:38:09;;;;;;;;;;;;;;;27.78;43.21;100480.66;5117253;28;715;-38
2021/08/03 12:40:34;;;;;;;;;;;;;;;27.32;43.93;100483.50;5116682;28;831;-34
2021/08/03 12:43:00;;;;;;;;;;;;;;;26.68;44.36;100482.25;5116344;28;1005;-40
2021/08/03 12:45:25;;;;;;;;;;;;;;;26.44;44.95;100485.06;5116286;28;1956;-36
2021/08/03 12:47:54;;;;;;;;;;;;;;;26.38;45.05;100485.78;5116713;28;842;-39
2021/08/03 12:50:19;;;;;;;;;;;;;;;26.19;45.01;100485.28;5116665;28;783;-40
2021/08/03 12:52:48;;;;;;;;;;;;;;;27.56;44.28;100488.72;5116868;28;766;-40